Time;durP1;ratioP1;P1;durP2;ratioP2;P2;SDS_P1;SDS_P2;PMS_P1;PMS_P2;Temp;Humidity;BMP_temperature;BMP_pressure;BME280_temperature;BME280_humidity;BME280_pressure;Samples;Min_cycle;Max_cycle;Signal;HPM_P1;HPM_P2
2023/06/28 00:01:14;;;;;;;13.27;3.47;;;;;;;-146.27;82.77;81735.41;5047497;28;20426;-69
2023/06/28 00:03:39;;;;;;;16.13;3.50;;;;;;;-146.27;83.56;81779.59;5048557;28;20465;-70
2023/06/28 00:06:05;;;;;;;10.23;4.03;;;;;;;-146.27;83.37;81793.66;5049736;28;20029;-69
2023/06/28 00:08:30;;;;;;;9.65;3.20;;;;;;;-146.27;83.50;81805.69;5049377;28;20024;-70
2023/06/28 00:10:56;;;;;;;10.63;4.00;;;;;;;-146.27;83.77;81797.66;5030567;28;20021;-69
2023/06/28 00:13:21;;;;;;;10.70;3.22;;;;;;;-146.27;84.78;81765.53;5049497;28;20024;-68
2023/06/28 00:15:48;;;;;;;11.25;3.42;;;;;;;-146.27;84.34;81781.59;5049955;28;20029;-69
2023/06/28 00:18:14;;;;;;;7.78;3.00;;;;;;;-146.27;82.69;81791.63;5050502;28;20843;-70
2023/06/28 00:20:42;;;;;;;11.23;3.75;;;;;;;-146.27;84.16;81791.63;5048159;28;20531;-69
2023/06/28 00:23:08;;;;;;;11.95;3.47;;;;;;;-146.27;83.28;81761.50;5049689;28;20029;-69
2023/06/28 00:25:34;;;;;;;8.90;3.35;;;;;;;-146.27;84.52;81783.59;5050041;28;20055;-69
2023/06/28 00:28:00;;;;;;;10.55;3.53;;;;;;;-146.27;83.63;81733.38;5049123;28;20488;-70
2023/06/28 00:30:25;;;;;;;10.82;4.15;;;;;;;-146.27;82.65;81745.44;5049282;28;20124;-70
2023/06/28 00:32:52;;;;;;;10.85;4.28;;;;;;;-146.27;83.42;81783.59;5031627;28;20381;-71
2023/06/28 00:35:17;;;;;;;9.07;3.63;;;;;;;-146.27;83.88;81831.81;5046815;28;20116;-70
2023/06/28 00:37:43;;;;;;;10.70;4.00;;;;;;;-146.27;84.45;81845.88;5047749;28;20024;-70
2023/06/28 00:40:09;;;;;;;14.75;4.68;;;;;;;-146.27;85.13;81829.78;5046037;28;20025;-70
2023/06/28 00:42:34;;;;;;;8.52;3.72;;;;;;;-146.27;84.53;81795.66;5049439;28;20452;-70
2023/06/28 00:45:00;;;;;;;7.28;3.55;;;;;;;-146.27;84.52;81785.59;5048770;28;20025;-70
2023/06/28 00:47:26;;;;;;;10.98;4.10;;;;;;;-146.27;84.10;81833.81;5049426;28;20107;-71
2023/06/28 00:49:53;;;;;;;10.73;4.22;;;;;;;-146.27;84.86;81821.75;5048424;28;20025;-70
2023/06/28 00:52:20;;;;;;;10.00;4.18;;;;;;;-146.27;85.32;81765.53;5049098;28;20029;-70
2023/06/28 00:54:45;;;;;;;10.32;3.88;;;;;;;-146.27;84.93;81791.63;5037226;28;20040;-70
2023/06/28 00:57:11;;;;;;;12.43;4.55;;;;;;;-146.27;85.83;81789.63;5050453;28;20025;-70
2023/06/28 00:59:37;;;;;;;10.60;3.85;;;;;;;-146.27;86.29;81815.72;5050179;28;20045;-71
2023/06/28 01:02:03;;;;;;;12.10;4.28;;;;;;;-146.27;86.37;81797.66;5047302;28;20087;-70
2023/06/28 01:04:28;;;;;;;10.40;4.28;;;;;;;-146.27;86.75;81863.94;5048660;28;20645;-70
2023/06/28 01:06:59;;;;;;;9.25;4.55;;;;;;;-146.27;87.46;81845.88;5031145;28;20033;-70
2023/06/28 01:09:27;;;;;;;10.75;4.72;;;;;;;-146.27;87.99;81882.00;5047543;28;20060;-70
2023/06/28 01:11:54;;;;;;;11.80;4.35;;;;;;;-146.27;88.66;81886.03;5045612;28;20116;-70
2023/06/28 01:14:22;;;;;;;12.15;4.80;;;;;;;-146.27;88.16;81882.00;5027994;28;20058;-70
2023/06/28 01:16:54;;;;;;;11.50;4.60;;;;;;;-146.27;90.72;81894.06;5047560;28;20033;-70
2023/06/28 01:19:24;;;;;;;10.57;4.20;;;;;;;-146.27;89.50;81910.13;5048314;28;20389;-70
2023/06/28 01:21:57;;;;;;;11.82;4.32;;;;;;;-146.27;89.87;81890.06;5049315;28;20028;-70
2023/06/28 01:24:24;;;;;;;10.57;4.55;;;;;;;-146.27;89.34;81930.22;5035947;28;20036;-70
2023/06/28 01:26:51;;;;;;;14.20;4.72;;;;;;;-146.27;90.11;81920.19;5014672;28;20036;-70
2023/06/28 01:29:21;;;;;;;10.60;4.32;;;;;;;-146.27;90.40;81900.09;5049961;28;20025;-70
2023/06/28 01:31:52;;;;;;;11.73;4.07;;;;;;;-146.27;91.45;81914.16;5048625;28;20025;-70
2023/06/28 01:34:18;;;;;;;11.02;4.40;;;;;;;-146.27;89.62;81892.06;5042379;28;20361;-71
2023/06/28 01:36:46;;;;;;;14.80;4.30;;;;;;;-146.27;89.19;81910.13;5047121;28;20029;-70
2023/06/28 01:39:12;;;;;;;9.13;4.20;;;;;;;-146.27;89.69;81926.22;5045937;28;20029;-70
2023/06/28 01:41:38;;;;;;;13.43;4.53;;;;;;;-146.27;90.25;81902.09;5048677;28;20033;-71
2023/06/28 01:44:04;;;;;;;12.80;4.95;;;;;;;-146.27;89.95;81926.22;5048893;28;20091;-70
2023/06/28 01:46:30;;;;;;;12.82;4.88;;;;;;;-146.27;90.49;81906.13;5046517;28;20508;-70
2023/06/28 01:48:56;;;;;;;8.77;4.68;;;;;;;-146.27;90.59;81942.28;5047939;28;20041;-70
2023/06/28 01:51:21;;;;;;;10.73;4.32;;;;;;;-146.27;91.39;81950.31;5046857;28;20021;-70
2023/06/28 01:53:47;;;;;;;12.27;5.00;;;;;;;-146.27;90.91;81924.19;5048196;28;20029;-70
2023/06/28 01:56:12;;;;;;;12.80;4.60;;;;;;;-146.27;90.32;81944.28;5047370;28;20033;-70
2023/06/28 01:58:38;;;;;;;10.15;4.55;;;;;;;-146.27;91.26;81942.28;5045405;28;20048;-71
2023/06/28 02:01:04;;;;;;;11.00;4.47;;;;;;;-146.27;91.93;81922.19;5048310;28;20082;-70
2023/06/28 02:03:29;;;;;;;15.00;5.15;;;;;;;-146.27;92.31;81970.41;5047903;28;20100;-70
2023/06/28 02:05:55;;;;;;;19.23;4.90;;;;;;;-146.27;92.78;81936.25;5048561;28;20040;-70
2023/06/28 02:08:21;;;;;;;10.57;4.90;;;;;;;-146.27;91.17;81966.38;5050519;28;20028;-70
2023/06/28 02:10:46;;;;;;;11.13;5.07;;;;;;;-146.27;93.20;81867.97;5052777;28;20025;-70
2023/06/28 02:13:12;;;;;;;9.43;4.40;;;;;;;-146.27;92.71;81928.22;5050930;28;20033;-70
2023/06/28 02:15:37;;;;;;;9.88;4.65;;;;;;;-146.27;92.85;81938.25;5053548;28;20024;-70
2023/06/28 02:18:03;;;;;;;13.63;5.50;;;;;;;-146.27;92.44;81926.22;5053081;28;20037;-69
2023/06/28 02:20:29;;;;;;;10.73;5.03;;;;;;;-146.27;92.60;81922.19;5050985;28;20033;-70
2023/06/28 02:22:54;;;;;;;12.85;4.57;;;;;;;-146.27;93.16;81898.09;5030365;28;20742;-70
2023/06/28 02:25:20;;;;;;;10.45;4.78;;;;;;;-146.27;93.60;81898.09;5045404;28;20392;-69
2023/06/28 02:27:46;;;;;;;12.15;5.15;;;;;;;-146.27;93.59;81876.00;5052666;28;20519;-70
2023/06/28 02:30:11;;;;;;;14.77;4.97;;;;;;;-146.27;92.55;81890.06;5052735;28;20049;-70
2023/06/28 02:32:36;;;;;;;12.63;4.40;;;;;;;-146.27;93.00;81865.94;5050999;28;20032;-70
2023/06/28 02:35:02;;;;;;;7.95;4.82;;;;;;;-146.27;93.30;81912.16;5051104;28;20078;-69
2023/06/28 02:37:27;;;;;;;11.02;4.82;;;;;;;-146.27;93.31;81886.03;5051816;28;20063;-70
2023/06/28 02:39:53;;;;;;;12.20;5.47;;;;;;;-146.27;94.43;81886.03;5050747;28;20098;-70
2023/06/28 02:42:18;;;;;;;8.77;4.97;;;;;;;-146.27;93.45;81936.25;5051788;28;20029;-69
2023/06/28 02:44:44;;;;;;;12.90;4.47;;;;;;;-146.27;93.79;81908.13;5050180;28;20116;-70
2023/06/28 02:47:09;;;;;;;9.30;5.25;;;;;;;-146.27;94.33;81906.13;5052301;28;20021;-70
2023/06/28 02:49:35;;;;;;;13.13;5.80;;;;;;;-146.27;95.60;81938.25;5051211;28;20052;-70
2023/06/28 02:52:00;;;;;;;10.85;5.38;;;;;;;-146.27;96.71;81918.16;5052452;28;20155;-70
2023/06/28 02:54:25;;;;;;;12.95;5.22;;;;;;;-146.27;95.90;81912.16;5051446;28;20077;-70
2023/06/28 02:56:51;;;;;;;15.88;5.28;;;;;;;-146.27;96.25;81918.16;5052481;28;20109;-70
2023/06/28 02:59:16;;;;;;;13.45;5.22;;;;;;;-146.27;96.04;81906.13;5050565;28;20119;-70
2023/06/28 03:01:41;;;;;;;14.18;5.15;;;;;;;-146.27;96.88;81894.06;5048486;28;20025;-70
2023/06/28 03:04:07;;;;;;;14.48;4.97;;;;;;;-146.27;96.42;81902.09;5049979;28;20029;-70
2023/06/28 03:06:33;;;;;;;12.30;4.95;;;;;;;-146.27;95.86;81934.25;5050862;28;20383;-70
2023/06/28 03:08:59;;;;;;;12.70;5.00;;;;;;;-146.27;96.05;81920.19;5051097;28;20384;-70
2023/06/28 03:11:24;;;;;;;12.80;5.20;;;;;;;-146.27;97.30;81926.22;5050225;28;20029;-70
2023/06/28 03:13:50;;;;;;;17.65;5.05;;;;;;;-146.27;97.40;81928.22;5050400;28;20380;-70
2023/06/28 03:16:15;;;;;;;11.32;4.95;;;;;;;-146.27;96.44;81970.41;5050221;28;20024;-70
2023/06/28 03:18:41;;;;;;;13.50;4.68;;;;;;;-146.27;95.74;81978.44;5050161;28;20388;-69
2023/06/28 03:21:06;;;;;;;13.00;4.03;;;;;;;-146.27;95.58;81968.38;5049577;28;20091;-70
2023/06/28 03:23:32;;;;;;;11.93;4.30;;;;;;;-146.27;95.29;81948.31;5051512;28;20111;-69
2023/06/28 03:25:57;;;;;;;17.92;4.78;;;;;;;-146.27;94.89;82002.53;5050447;28;20550;-69
2023/06/28 03:28:23;;;;;;;16.55;5.45;;;;;;;-146.27;95.88;81970.41;5050752;28;20052;-70
2023/06/28 03:30:48;;;;;;;12.07;4.43;;;;;;;-146.27;95.45;81990.47;5049940;28;20032;-70
2023/06/28 03:33:14;;;;;;;13.88;4.68;;;;;;;-146.27;95.59;81986.47;5050547;28;20508;-70
2023/06/28 03:35:39;;;;;;;10.10;4.00;;;;;;;-146.27;94.40;82038.69;5049686;28;20078;-69
2023/06/28 03:38:05;;;;;;;13.27;4.05;;;;;;;-146.27;93.87;82016.59;5051310;28;20029;-70
2023/06/28 03:40:30;;;;;;;11.27;3.75;;;;;;;-146.27;94.41;82018.59;5050940;28;20020;-70
2023/06/28 03:42:55;;;;;;;10.82;4.22;;;;;;;-146.27;94.27;81990.47;5050187;28;20106;-69
2023/06/28 03:45:21;;;;;;;10.43;3.88;;;;;;;-146.27;94.10;81986.47;5051086;28;20387;-69
2023/06/28 03:47:51;;;;;;;13.57;3.90;;;;;;;-146.27;93.27;82038.69;5049442;28;20017;-69
2023/06/28 03:50:16;;;;;;;11.15;3.75;;;;;;;-146.27;93.77;82008.56;5050860;28;20039;-70
2023/06/28 03:52:42;;;;;;;13.90;4.82;;;;;;;-146.27;94.33;82008.56;5050126;28;20399;-69
2023/06/28 03:55:08;;;;;;;8.63;3.63;;;;;;;-146.27;93.63;82006.53;5051232;28;20036;-69
2023/06/28 03:57:33;;;;;;;8.18;3.78;;;;;;;-146.27;93.72;81978.44;5050990;28;20025;-70
2023/06/28 03:59:59;;;;;;;10.82;3.63;;;;;;;-146.27;92.64;82050.75;5050797;28;20040;-69
2023/06/28 04:02:24;;;;;;;9.85;3.60;;;;;;;-146.27;92.92;82010.56;5050102;28;20112;-69
2023/06/28 04:04:49;;;;;;;11.40;4.20;;;;;;;-146.27;93.39;82016.59;5032170;28;20028;-69
2023/06/28 04:07:15;;;;;;;17.38;4.72;;;;;;;-146.27;93.66;82026.63;5049673;28;20448;-70
2023/06/28 04:09:41;;;;;;;11.77;3.70;;;;;;;-146.27;94.21;82028.66;5048502;28;20547;-70
2023/06/28 04:12:08;;;;;;;13.10;4.03;;;;;;;-146.27;94.54;82042.69;5049875;28;20025;-70
2023/06/28 04:14:33;;;;;;;13.77;4.60;;;;;;;-146.27;94.34;82076.84;5049516;28;20112;-70
2023/06/28 04:16:58;;;;;;;10.50;4.25;;;;;;;-146.27;94.56;82086.91;5047781;28;20193;-70
2023/06/28 04:19:24;;;;;;;10.50;4.15;;;;;;;-146.27;95.00;82022.63;5029718;28;20040;-70
2023/06/28 04:21:49;;;;;;;13.05;4.32;;;;;;;-146.27;95.16;82092.91;5048676;28;20028;-71
2023/06/28 04:24:14;;;;;;;11.73;4.88;;;;;;;-146.27;95.93;82072.84;5049693;28;20016;-70
2023/06/28 04:26:40;;;;;;;16.13;4.90;;;;;;;-146.27;95.70;82090.91;5049259;28;20127;-70
2023/06/28 04:29:05;;;;;;;12.43;5.10;;;;;;;-146.27;96.12;82092.91;5048425;28;20125;-70
2023/06/28 04:31:30;;;;;;;12.38;5.22;;;;;;;-146.27;96.61;82066.81;5049678;28;20025;-70
2023/06/28 04:33:56;;;;;;;14.52;5.63;;;;;;;-146.27;97.27;82106.97;5048362;28;20040;-70
2023/06/28 04:36:22;;;;;;;11.85;5.07;;;;;;;-146.27;97.82;82115.00;5030145;28;20035;-70
2023/06/28 04:38:52;;;;;;;18.45;5.65;;;;;;;-146.27;97.57;82094.94;5049765;28;20484;-71
2023/06/28 04:41:27;;;;;;;22.85;6.03;;;;;;;-146.27;97.62;82058.78;5049131;28;20392;-70
2023/06/28 04:43:54;;;;;;;11.38;5.50;;;;;;;-146.27;98.23;82026.63;5049586;28;20025;-70
2023/06/28 04:46:22;;;;;;;13.20;6.07;;;;;;;-146.27;98.59;82080.88;5049916;28;20104;-70
2023/06/28 04:48:48;;;;;;;14.98;6.15;;;;;;;-146.27;98.88;82098.94;5048373;28;20440;-70
2023/06/28 04:51:14;;;;;;;15.27;6.13;;;;;;;-146.27;98.83;82040.69;5049106;28;20030;-70
2023/06/28 04:53:39;;;;;;;24.25;6.60;;;;;;;-146.27;98.94;82040.69;5049901;28;20033;-70
2023/06/28 04:56:05;;;;;;;19.27;6.18;;;;;;;-146.27;99.21;82072.84;5048517;28;20564;-70
2023/06/28 04:58:31;;;;;;;14.45;5.72;;;;;;;-146.27;98.61;82028.66;5048585;28;20132;-70
2023/06/28 05:00:56;;;;;;;13.95;6.30;;;;;;;-146.27;99.76;82040.69;5031651;28;20136;-70
2023/06/28 05:03:28;;;;;;;14.52;6.78;;;;;;;-146.27;98.82;82052.75;5048541;28;20102;-70
2023/06/28 05:05:55;;;;;;;12.82;6.50;;;;;;;-146.27;98.84;82054.75;5048989;28;20037;-70
2023/06/28 05:08:21;;;;;;;15.57;6.53;;;;;;;-146.27;98.92;82062.78;5050125;28;20523;-71
2023/06/28 05:10:47;;;;;;;18.88;6.97;;;;;;;-146.27;98.90;82026.63;5031107;28;20036;-70
2023/06/28 05:13:12;;;;;;;13.40;6.03;;;;;;;-146.27;99.32;82070.81;5047815;28;20033;-70
2023/06/28 05:15:37;;;;;;;13.15;6.72;;;;;;;-146.27;98.66;82068.81;5049871;28;20028;-69
2023/06/28 05:18:03;;;;;;;22.67;7.32;;;;;;;-146.27;98.18;82038.69;5049287;28;20039;-71
2023/06/28 05:20:29;;;;;;;16.17;7.32;;;;;;;-146.27;98.30;82044.72;5048029;28;20120;-70
2023/06/28 05:23:12;;;;;;;22.45;6.95;;;;;;;-146.27;98.52;82028.66;5049559;28;20467;-70
2023/06/28 05:25:38;;;;;;;15.77;7.30;;;;;;;-146.27;98.70;82030.66;5048953;28;20118;-70
2023/06/28 05:28:04;;;;;;;15.27;6.10;;;;;;;-146.27;99.01;81984.47;5029375;28;20030;-71
2023/06/28 05:30:30;;;;;;;17.48;7.55;;;;;;;-146.27;98.01;82022.63;5039923;28;20456;-70
2023/06/28 05:32:55;;;;;;;17.98;6.38;;;;;;;-146.27;97.62;82010.56;5046770;28;20029;-71
2023/06/28 05:35:21;;;;;;;17.10;6.00;;;;;;;-146.27;97.54;81918.16;5042411;28;20029;-70
2023/06/28 05:37:46;;;;;;;18.10;5.85;;;;;;;-146.27;96.82;82012.56;5043957;28;20025;-70
2023/06/28 05:40:12;;;;;;;18.33;5.85;;;;;;;-146.27;97.05;81994.50;5050209;28;20119;-69
2023/06/28 05:42:37;;;;;;;14.77;6.80;;;;;;;-146.27;97.24;82014.59;5055144;28;20465;-68
2023/06/28 05:45:03;;;;;;;13.18;5.88;;;;;;;-146.27;96.73;81994.50;5053208;28;20025;-69
2023/06/28 05:47:28;;;;;;;15.73;6.68;;;;;;;-146.27;95.96;82006.53;5055644;28;20142;-69
2023/06/28 05:49:53;;;;;;;13.85;5.63;;;;;;;-146.27;96.16;81988.47;5049961;28;20365;-68
2023/06/28 05:52:19;;;;;;;15.15;5.13;;;;;;;-146.27;96.05;81946.28;5052862;28;20025;-72
2023/06/28 05:54:44;;;;;;;17.02;6.45;;;;;;;-146.27;96.22;81980.44;5037772;28;20031;-68
2023/06/28 05:57:09;;;;;;;11.25;5.25;;;;;;;-146.27;96.58;81934.25;5056476;28;20016;-68
2023/06/28 05:59:35;;;;;;;16.45;6.05;;;;;;;-146.27;95.52;81974.41;5054502;28;20053;-69
2023/06/28 06:02:00;;;;;;;15.15;6.20;;;;;;;-146.27;95.25;81924.19;5054003;28;20033;-70
2023/06/28 06:04:25;;;;;;;19.27;5.18;;;;;;;-146.27;94.69;81938.25;5048834;28;20021;-67
2023/06/28 06:06:51;;;;;;;12.55;5.78;;;;;;;-146.27;94.48;81926.22;5051877;28;20051;-69
2023/06/28 06:09:16;;;;;;;13.82;5.93;;;;;;;-146.27;94.21;81922.19;5058109;28;20021;-69
2023/06/28 06:11:41;;;;;;;17.90;5.55;;;;;;;-146.27;93.89;81956.34;5055445;28;20097;-69
2023/06/28 06:14:07;;;;;;;14.40;5.60;;;;;;;-146.27;93.68;81878.00;5053579;28;20071;-70
2023/06/28 06:16:32;;;;;;;10.13;5.18;;;;;;;-146.27;93.19;81865.94;5055875;28;20423;-69
2023/06/28 06:18:58;;;;;;;10.70;5.35;;;;;;;-146.27;92.86;81918.16;5049990;28;20083;-69
2023/06/28 06:21:23;;;;;;;13.43;6.03;;;;;;;-146.27;92.71;81857.91;5044689;28;20481;-70
2023/06/28 06:23:48;;;;;;;9.90;5.15;;;;;;;-146.27;92.97;81867.97;5050250;28;20369;-69
2023/06/28 06:26:14;;;;;;;16.95;6.78;;;;;;;-146.27;92.87;81863.94;5052552;28;20024;-69
2023/06/28 06:28:39;;;;;;;18.98;7.32;;;;;;;-146.27;93.07;81878.00;5053643;28;20075;-70
2023/06/28 06:31:05;;;;;;;20.75;8.43;;;;;;;-146.27;92.88;81861.94;5026827;28;20102;-69
2023/06/28 06:33:31;;;;;;;33.20;11.93;;;;;;;-146.27;92.75;81815.72;5052958;28;20056;-69
2023/06/28 06:35:56;;;;;;;22.35;12.10;;;;;;;-146.27;92.74;81821.75;5050339;28;20507;-69
2023/06/28 06:38:21;;;;;;;31.83;13.50;;;;;;;-146.27;92.84;81837.81;5052607;28;20033;-70
2023/06/28 06:40:48;;;;;;;24.00;14.10;;;;;;;-146.27;93.06;81813.72;5050765;28;20350;-69
2023/06/28 06:43:13;;;;;;;30.58;13.77;;;;;;;-146.27;93.28;81757.50;5052186;28;20075;-70
2023/06/28 06:45:39;;;;;;;29.00;13.55;;;;;;;-146.27;93.22;81801.69;5048002;28;20123;-69
2023/06/28 06:48:05;;;;;;;30.63;14.27;;;;;;;-146.27;93.22;81781.59;5050232;28;20107;-69
2023/06/28 06:50:30;;;;;;;26.52;12.93;;;;;;;-146.27;93.09;81781.59;5052793;28;20029;-69
2023/06/28 06:52:55;;;;;;;23.70;10.20;;;;;;;-146.27;92.00;81793.66;5052024;28;20028;-69
2023/06/28 06:55:22;;;;;;;22.13;9.45;;;;;;;-146.27;91.55;81763.50;5044192;28;20032;-70
2023/06/28 06:57:48;;;;;;;28.70;9.63;;;;;;;-146.27;91.31;81773.56;5048037;28;20036;-71
2023/06/28 07:00:16;;;;;;;22.77;10.43;;;;;;;-146.27;91.15;81749.47;5034970;28;20060;-70
2023/06/28 07:02:41;;;;;;;33.65;12.27;;;;;;;-146.27;90.55;81769.53;5046109;28;20056;-71
2023/06/28 07:05:07;;;;;;;30.70;13.07;;;;;;;-146.27;90.64;81789.63;5033547;28;20485;-71
2023/06/28 07:07:32;;;;;;;23.55;11.77;;;;;;;-146.27;90.18;81791.63;5043766;28;20032;-70
2023/06/28 07:09:57;;;;;;;24.40;12.85;;;;;;;-146.27;90.58;81745.44;5032589;28;20029;-71
2023/06/28 07:12:23;;;;;;;28.55;13.70;;;;;;;-146.27;90.20;81735.41;5045766;28;20141;-71
2023/06/28 07:14:49;;;;;;;22.33;12.65;;;;;;;-146.27;89.54;81729.38;5049704;28;20120;-71
2023/06/28 07:17:14;;;;;;;28.92;14.00;;;;;;;-146.27;89.67;81705.28;5044361;28;20492;-70
2023/06/28 07:19:40;;;;;;;26.98;12.90;;;;;;;-146.27;89.33;81745.44;5049249;28;20028;-71
2023/06/28 07:22:05;;;;;;;22.75;12.98;;;;;;;-146.27;89.30;81687.19;5048859;28;20495;-70
2023/06/28 07:24:30;;;;;;;26.13;13.82;;;;;;;-146.27;89.42;81699.25;5051131;28;20096;-72
2023/06/28 07:26:56;;;;;;;25.65;12.63;;;;;;;-146.27;89.20;81693.22;5050479;28;20393;-71
2023/06/28 07:29:21;;;;;;;29.02;12.57;;;;;;;-146.27;89.04;81701.25;5050869;28;20528;-71
2023/06/28 07:31:47;;;;;;;23.40;10.82;;;;;;;-146.27;88.92;81673.13;5049051;28;20024;-70
2023/06/28 07:34:14;;;;;;;20.25;10.68;;;;;;;-146.27;89.18;81592.78;5047350;28;20444;-70
2023/06/28 07:36:40;;;;;;;17.63;8.57;;;;;;;-146.27;89.06;81649.03;5033832;28;20108;-70
2023/06/28 07:39:05;;;;;;;16.35;8.02;;;;;;;-146.27;88.68;81624.94;5051316;28;20536;-71
2023/06/28 07:41:30;;;;;;;15.90;6.90;;;;;;;-146.27;88.16;81641.00;5042989;28;20043;-70
2023/06/28 07:43:56;;;;;;;17.30;6.30;;;;;;;-146.27;88.27;81636.97;5043748;28;20029;-71
2023/06/28 07:46:21;;;;;;;17.45;6.05;;;;;;;-146.27;88.26;81580.75;5045702;28;20049;-70
2023/06/28 07:48:53;;;;;;;12.25;5.70;;;;;;;-146.27;88.08;81594.81;5037568;28;20029;-70
2023/06/28 07:51:35;;;;;;;13.15;5.68;;;;;;;-146.27;87.86;81616.91;5048997;28;20465;-71
2023/06/28 07:54:02;;;;;;;16.65;6.35;;;;;;;-146.27;87.95;81570.69;5051213;28;20025;-71
2023/06/28 07:56:27;;;;;;;15.18;5.90;;;;;;;-146.27;88.03;81542.59;5017237;28;20443;-70
2023/06/28 07:58:53;;;;;;;16.88;6.68;;;;;;;-146.27;87.83;81580.75;5049502;28;20052;-70
2023/06/28 08:01:18;;;;;;;20.27;6.10;;;;;;;-146.27;88.38;81578.75;5048984;28;20266;-71
2023/06/28 08:03:44;;;;;;;12.02;5.57;;;;;;;-146.27;88.02;81548.59;5049986;28;20409;-71
2023/06/28 08:06:09;;;;;;;15.32;6.10;;;;;;;-146.27;87.67;81556.66;5051344;28;20032;-71
2023/06/28 08:08:34;;;;;;;15.35;6.45;;;;;;;-146.27;87.39;81528.53;5051265;28;20029;-69
2023/06/28 08:11:00;;;;;;;16.13;7.00;;;;;;;-146.27;87.52;81550.63;5049750;28;20025;-69
2023/06/28 08:13:25;;;;;;;20.90;7.20;;;;;;;-146.27;87.33;81540.56;5050521;28;20115;-70
2023/06/28 08:15:50;;;;;;;16.88;7.90;;;;;;;-146.27;87.34;81540.56;5043238;28;20121;-69
2023/06/28 08:18:17;;;;;;;19.77;7.57;;;;;;;-146.27;87.53;81492.38;5043035;28;20029;-70
2023/06/28 08:20:47;;;;;;;18.30;7.57;;;;;;;-146.27;87.67;81520.50;5050640;28;20136;-69
2023/06/28 08:23:12;;;;;;;18.98;6.97;;;;;;;-146.27;87.82;81478.31;5033282;28;20025;-71
2023/06/28 08:25:39;;;;;;;21.05;8.65;;;;;;;-146.27;87.39;81544.59;5050283;28;20083;-69
2023/06/28 08:28:05;;;;;;;18.95;8.65;;;;;;;-146.27;87.17;81492.38;5047264;28;20492;-72
2023/06/28 08:30:30;;;;;;;17.85;8.20;;;;;;;-146.27;87.57;81508.44;5047852;28;20029;-71
2023/06/28 08:32:55;;;;;;;18.15;8.23;;;;;;;-146.27;87.53;81468.28;5046384;28;20071;-71
2023/06/28 08:35:21;;;;;;;19.20;8.38;;;;;;;-146.27;87.50;81502.41;5047138;28;20029;-70
2023/06/28 08:37:46;;;;;;;23.40;7.72;;;;;;;-146.27;87.32;81472.28;5049082;28;20029;-70
2023/06/28 08:40:11;;;;;;;18.65;7.80;;;;;;;-146.27;87.16;81440.16;5047031;28;20027;-69
2023/06/28 08:42:41;;;;;;;20.45;8.65;;;;;;;-146.27;87.24;81420.06;5054273;28;20353;-69
2023/06/28 08:45:07;;;;;;;21.88;8.25;;;;;;;-146.27;87.64;81379.91;5047433;28;20113;-69
2023/06/28 08:47:33;;;;;;;17.60;8.18;;;;;;;-146.27;87.38;81395.97;5041628;28;20383;-69
2023/06/28 08:49:59;;;;;;;19.45;8.95;;;;;;;-146.27;87.14;81412.03;5034483;28;20087;-69
2023/06/28 08:52:26;;;;;;;28.52;8.73;;;;;;;-146.27;87.25;81345.78;5040585;28;20033;-69
2023/06/28 08:54:52;;;;;;;22.60;9.13;;;;;;;-146.27;87.34;81321.66;5028237;28;20117;-70
2023/06/28 08:57:18;;;;;;;20.38;8.98;;;;;;;-146.27;86.78;81329.72;5042747;28;20074;-70
2023/06/28 08:59:44;;;;;;;20.70;8.98;;;;;;;-146.27;87.24;81323.69;5037739;28;20052;-69
2023/06/28 09:02:14;;;;;;;16.23;9.27;;;;;;;-146.27;87.08;81279.50;5038019;28;20037;-70
2023/06/28 09:04:41;;;;;;;21.85;9.43;;;;;;;-146.27;87.35;81297.56;5039946;28;20373;-70
2023/06/28 09:07:08;;;;;;;23.63;9.93;;;;;;;-146.27;87.60;81315.66;5039007;28;20036;-70
2023/06/28 09:09:35;;;;;;;20.17;10.40;;;;;;;-146.27;87.64;81285.53;5038091;28;20444;-71
2023/06/28 09:12:01;;;;;;;17.88;10.38;;;;;;;-146.27;87.08;81283.50;5038587;28;20033;-70
2023/06/28 09:14:27;;;;;;;22.05;10.27;;;;;;;-146.27;87.26;81299.59;5038473;28;20033;-70
2023/06/28 09:16:53;;;;;;;19.42;8.73;;;;;;;-146.27;86.97;81247.38;5036412;28;20448;-70
2023/06/28 09:19:19;;;;;;;19.98;10.52;;;;;;;-146.27;87.22;81305.59;5039795;28;20397;-70
2023/06/28 09:21:45;;;;;;;19.73;10.55;;;;;;;-146.27;86.83;81295.56;5040398;28;20024;-70
2023/06/28 09:24:12;;;;;;;21.55;10.45;;;;;;;-146.27;86.78;81285.53;5037060;28;20119;-69
2023/06/28 09:26:40;;;;;;;24.55;9.95;;;;;;;-146.27;86.77;81227.28;5021204;28;20028;-70
2023/06/28 09:29:10;;;;;;;30.27;11.70;;;;;;;-146.27;86.97;81251.38;5040797;28;20276;-70
2023/06/28 09:31:46;;;;;;;22.08;10.65;;;;;;;-146.27;86.75;81263.44;5040791;28;20070;-70
2023/06/28 09:34:11;;;;;;;16.73;9.73;;;;;;;-146.27;86.48;81221.25;5046722;28;20067;-70
2023/06/28 09:36:37;;;;;;;23.10;10.02;;;;;;;-146.27;85.89;81235.31;5045517;28;20484;-70
2023/06/28 09:39:07;;;;;;;23.33;11.25;;;;;;;-146.27;85.95;81189.13;5048044;28;20072;-70
2023/06/28 09:41:42;;;;;;;16.63;10.10;;;;;;;-146.27;85.72;81163.03;5049620;28;20444;-69
2023/06/28 09:44:09;;;;;;;22.77;10.05;;;;;;;-146.27;85.64;81148.97;5048080;28;20386;-70
2023/06/28 09:46:34;;;;;;;19.85;11.23;;;;;;;-146.27;85.65;81185.13;5049318;28;20029;-70
2023/06/28 09:49:00;;;;;;;25.85;11.80;;;;;;;-146.27;85.20;81128.88;5047310;28;20029;-70
2023/06/28 09:51:25;;;;;;;22.85;11.48;;;;;;;-146.27;85.21;81120.84;5047496;28;20025;-71
2023/06/28 09:53:52;;;;;;;18.15;10.35;;;;;;;-146.27;84.94;81104.78;5046788;28;20036;-70
2023/06/28 09:56:35;;;;;;;19.00;11.57;;;;;;;-146.27;85.33;81092.72;5038896;28;20469;-70
2023/06/28 09:59:10;;;;;;;21.63;11.63;;;;;;;-146.27;84.67;81104.78;5040778;28;20045;-68
2023/06/28 10:01:39;;;;;;;27.08;11.43;;;;;;;-146.27;85.04;81062.59;5048121;28;20040;-70
2023/06/28 10:04:08;;;;;;;24.77;11.30;;;;;;;-146.27;85.45;81062.59;5047705;28;20017;-71
2023/06/28 10:06:35;;;;;;;18.48;9.68;;;;;;;-146.27;84.23;81046.53;5024945;28;20094;-69
2023/06/28 10:09:01;;;;;;;21.30;9.40;;;;;;;-146.27;83.99;80986.31;5046392;28;20029;-70
2023/06/28 10:11:34;;;;;;;19.95;9.10;;;;;;;-146.27;84.29;80970.25;5024595;28;20045;-69
2023/06/28 10:13:59;;;;;;;21.58;9.70;;;;;;;-146.27;83.88;80942.13;5043976;28;20093;-70
2023/06/28 10:16:30;;;;;;;23.73;9.70;;;;;;;-146.27;83.08;80984.28;5044236;28;20499;-70
2023/06/28 10:18:55;;;;;;;17.58;9.15;;;;;;;-146.27;83.20;80982.28;5043088;28;20408;-71
2023/06/28 10:21:21;;;;;;;18.65;9.77;;;;;;;-146.27;83.32;80984.28;5032952;28;20021;-70
2023/06/28 10:23:47;;;;;;;25.23;9.35;;;;;;;-146.27;83.79;80976.25;5047621;28;20540;-70
2023/06/28 10:26:13;;;;;;;23.35;9.63;;;;;;;-146.27;84.36;81044.53;5049218;28;20101;-70
2023/06/28 10:28:40;;;;;;;21.50;9.85;;;;;;;-146.27;84.45;81026.47;5051498;28;20075;-70
2023/06/28 10:31:06;;;;;;;25.48;9.45;;;;;;;-146.27;84.66;81006.38;5053231;28;20017;-70
2023/06/28 10:33:33;;;;;;;20.70;9.60;;;;;;;-146.27;83.92;80962.22;5051621;28;20029;-70
2023/06/28 10:36:03;;;;;;;21.50;8.77;;;;;;;-146.27;84.18;80942.13;5052187;28;20428;-70
2023/06/28 10:38:33;;;;;;;25.98;10.25;;;;;;;-146.27;83.55;80938.09;5051281;28;20093;-70
2023/06/28 10:41:00;;;;;;;24.45;8.82;;;;;;;-146.27;83.99;80958.19;5051935;28;20361;-71
2023/06/28 10:43:26;;;;;;;22.23;9.32;;;;;;;-146.27;83.36;80895.94;5050785;28;20036;-70
2023/06/28 10:45:52;;;;;;;18.55;8.88;;;;;;;-146.27;83.06;80908.00;5050992;28;20037;-71
2023/06/28 10:48:20;;;;;;;24.48;8.90;;;;;;;-146.27;83.33;80851.75;5049155;28;20017;-70
2023/06/28 10:50:47;;;;;;;19.27;9.10;;;;;;;-146.27;82.83;80847.75;5044654;28;20029;-70
2023/06/28 10:53:28;;;;;;;19.20;9.68;;;;;;;-146.27;82.66;80841.72;5031242;28;20032;-71
2023/06/28 10:56:12;;;;;;;22.88;9.98;;;;;;;-146.27;82.13;80729.28;5051090;28;20037;-70
2023/06/28 10:58:43;;;;;;;17.55;8.80;;;;;;;-146.27;80.42;80749.34;5049347;28;20045;-71
2023/06/28 11:01:34;;;;;;;24.13;9.35;;;;;;;-146.27;80.45;80737.31;5049789;28;20037;-71
2023/06/28 11:04:12;;;;;;;22.77;9.13;;;;;;;-146.27;80.42;80793.53;5047414;28;20108;-70
2023/06/28 11:06:39;;;;;;;17.85;9.07;;;;;;;-146.27;80.02;80769.44;5052591;28;20416;-70